Time;durP1;ratioP1;P1;durP2;ratioP2;P2;SDS_P1;SDS_P2;PMS_P1;PMS_P2;Temp;Humidity;BMP_temperature;BMP_pressure;BME280_temperature;BME280_humidity;BME280_pressure;Samples;Min_cycle;Max_cycle;Signal;HPM_P1;HPM_P2
2023/01/23 00:01:55;;;;;;;11.50;7.00;;;;;;;8.43;51.82;101146.69;5113158;28;20050;-76
2023/01/23 00:04:39;;;;;;;15.93;7.68;;;;;;;8.43;51.82;101148.63;5112986;28;20055;-75
2023/01/23 00:07:24;;;;;;;13.50;7.00;;;;;;;8.59;52.47;101139.97;5105293;28;20513;-75
2023/01/23 00:10:10;;;;;;;10.50;5.05;;;;;;;8.58;52.57;101126.75;5111356;28;20371;-75
2023/01/23 00:12:56;;;;;;;9.73;5.85;;;;;;;8.56;52.36;101121.59;5109533;28;20525;-75
2023/01/23 00:15:40;;;;;;;11.13;6.70;;;;;;;8.48;52.82;101130.34;5110873;28;20046;-75
2023/01/23 00:18:25;;;;;;;8.80;5.28;;;;;;;8.47;53.58;101131.47;5110784;28;20410;-75
2023/01/23 00:21:13;;;;;;;10.77;5.15;;;;;;;8.10;54.25;101123.22;5112842;28;20410;-75
2023/01/23 00:24:00;;;;;;;11.60;5.63;;;;;;;8.29;53.59;101112.44;5092442;28;20047;-76
2023/01/23 00:26:45;;;;;;;12.20;5.90;;;;;;;8.45;52.57;101105.75;5094219;28;20522;-76
2023/01/23 00:29:29;;;;;;;8.10;4.37;;;;;;;8.56;52.66;101096.38;5101899;28;20054;-76
2023/01/23 00:32:14;;;;;;;7.00;4.10;;;;;;;8.73;52.79;101090.47;5112656;28;20410;-76
2023/01/23 00:34:59;;;;;;;8.85;4.93;;;;;;;8.69;51.76;101082.09;5112554;28;20504;-75
2023/01/23 00:37:44;;;;;;;7.47;5.10;;;;;;;8.72;51.47;101086.16;5093676;28;20097;-76
2023/01/23 00:40:29;;;;;;;15.10;6.50;;;;;;;8.52;52.11;101082.63;5111250;28;20050;-75
2023/01/23 00:43:14;;;;;;;9.25;4.68;;;;;;;8.60;52.77;101083.88;5112344;28;20043;-74
2023/01/23 00:45:59;;;;;;;10.00;6.50;;;;;;;8.69;52.45;101084.00;5098750;28;20043;-74
2023/01/23 00:48:44;;;;;;;11.27;5.97;;;;;;;8.65;52.07;101080.28;5111923;28;20050;-75
2023/01/23 00:51:30;;;;;;;9.05;6.22;;;;;;;8.63;51.71;101087.91;5091885;28;20502;-75
2023/01/23 00:54:16;;;;;;;8.20;5.13;;;;;;;8.64;51.62;101086.78;5091986;28;20063;-75
2023/01/23 00:57:00;;;;;;;8.93;5.47;;;;;;;8.61;51.19;101090.09;5098854;28;20050;-75
2023/01/23 00:59:45;;;;;;;10.32;4.88;;;;;;;8.53;52.50;101086.94;5108642;28;20070;-74
2023/01/23 01:02:30;;;;;;;7.73;4.23;;;;;;;8.75;52.09;101074.69;5100539;28;20051;-74
2023/01/23 01:05:16;;;;;;;7.90;4.47;;;;;;;8.85;52.58;101083.50;5111950;28;20277;-75
2023/01/23 01:08:01;;;;;;;8.40;5.70;;;;;;;8.72;52.43;101084.25;5091470;28;20047;-76
2023/01/23 01:10:46;;;;;;;6.00;3.67;;;;;;;8.77;53.04;101077.94;5099743;28;20050;-76
2023/01/23 01:13:31;;;;;;;8.90;4.25;;;;;;;8.78;52.53;101084.97;5112108;28;20047;-77
2023/01/23 01:16:15;;;;;;;7.97;5.45;;;;;;;8.68;52.11;101083.22;5102362;28;20042;-78
2023/01/23 01:19:00;;;;;;;8.27;4.60;;;;;;;8.42;52.41;101084.66;5105440;28;20422;-78
2023/01/23 01:21:46;;;;;;;6.95;4.60;;;;;;;8.54;52.61;101076.91;5109044;28;20047;-78
2023/01/23 01:24:31;;;;;;;7.45;5.35;;;;;;;8.55;52.43;101070.38;5112015;28;20121;-78
2023/01/23 01:27:16;;;;;;;6.53;4.32;;;;;;;8.61;52.84;101079.25;5111779;28;20047;-78
2023/01/23 01:30:01;;;;;;;8.00;5.45;;;;;;;8.62;52.45;101078.16;5091274;28;20051;-78
2023/01/23 01:32:46;;;;;;;4.28;3.33;;;;;;;8.61;52.82;101079.25;5110502;28;20063;-78
2023/01/23 01:35:31;;;;;;;8.25;5.35;;;;;;;8.64;52.51;101063.19;5110301;28;20047;-77
2023/01/23 01:38:16;;;;;;;10.63;4.35;;;;;;;8.63;51.93;101067.03;5108125;28;20055;-78
2023/01/23 01:41:01;;;;;;;8.63;6.22;;;;;;;8.54;51.71;101072.28;5105078;28;20418;-77
2023/01/23 01:43:45;;;;;;;8.47;5.97;;;;;;;8.40;51.29;101065.97;5087584;28;20047;-78
2023/01/23 01:46:31;;;;;;;6.95;5.10;;;;;;;8.31;50.89;101062.31;5111496;28;20296;-77
2023/01/23 01:49:30;;;;;;;8.82;5.82;;;;;;;8.32;51.01;101071.25;5111530;28;20054;-77
2023/01/23 01:52:17;;;;;;;8.43;5.85;;;;;;;8.33;51.27;101070.94;5099357;28;20039;-77
2023/01/23 01:55:04;;;;;;;11.60;6.90;;;;;;;8.33;51.38;101062.03;5111530;28;20046;-77
2023/01/23 01:57:53;;;;;;;20.73;6.40;;;;;;;8.30;51.17;101066.13;5102918;28;20035;-78
2023/01/23 02:00:37;;;;;;;9.35;6.38;;;;;;;8.35;51.00;101066.06;5111458;28;20046;-77
2023/01/23 02:03:24;;;;;;;7.05;4.60;;;;;;;8.37;50.97;101053.03;5095750;28;20059;-77
2023/01/23 02:06:08;;;;;;;9.85;6.57;;;;;;;8.34;50.81;101047.38;5111277;28;20097;-77
2023/01/23 02:09:20;;;;;;;7.57;4.78;;;;;;;8.42;50.43;101054.84;5106645;28;20062;-77
2023/01/23 02:12:06;;;;;;;8.50;6.18;;;;;;;8.41;50.83;101053.25;5114062;28;20047;-77
2023/01/23 02:14:51;;;;;;;11.30;6.20;;;;;;;8.31;50.72;101053.38;5114919;28;20042;-77
2023/01/23 02:17:37;;;;;;;8.43;5.95;;;;;;;8.29;51.08;101031.16;5115128;28;20394;-78
2023/01/23 02:20:27;;;;;;;9.90;5.45;;;;;;;8.27;51.37;101031.47;5110709;28;20058;-77
2023/01/23 02:23:30;;;;;;;7.20;5.55;;;;;;;8.18;51.45;101030.47;5111306;28;20043;-78
2023/01/23 02:26:20;;;;;;;10.00;5.55;;;;;;;8.12;51.31;101028.97;5110810;28;20042;-78
2023/01/23 02:29:06;;;;;;;8.52;6.10;;;;;;;8.20;51.50;101025.59;5109373;28;20418;-78
2023/01/23 02:32:00;;;;;;;9.90;6.15;;;;;;;8.11;52.02;101016.50;5100785;28;20046;-77
2023/01/23 02:34:46;;;;;;;7.97;5.22;;;;;;;8.03;52.82;101009.00;5094390;28;20043;-77
2023/01/23 02:37:33;;;;;;;10.45;6.53;;;;;;;8.03;53.04;101003.59;5094360;28;20043;-77
2023/01/23 02:40:21;;;;;;;9.63;6.55;;;;;;;8.00;53.56;100991.47;5094308;28;20055;-78
2023/01/23 02:43:09;;;;;;;10.30;6.55;;;;;;;7.87;54.20;100970.53;5100887;28;20047;-77
2023/01/23 02:46:04;;;;;;;12.80;7.53;;;;;;;7.87;54.67;100975.13;5108112;28;20043;-77
2023/01/23 02:48:48;;;;;;;11.40;7.60;;;;;;;7.90;54.69;100961.00;5106577;28;20416;-77
2023/01/23 02:51:33;;;;;;;6.82;5.03;;;;;;;7.94;54.93;100967.44;5114468;28;20517;-77
2023/01/23 02:54:19;;;;;;;8.75;5.72;;;;;;;7.92;54.35;100964.22;5108283;28;20046;-77
2023/01/23 02:57:04;;;;;;;10.77;7.55;;;;;;;7.99;54.14;100959.25;5104306;28;20043;-77
2023/01/23 03:02:54;;;;;;;9.32;6.97;;;;;;;7.97;54.31;100946.03;5097833;28;20509;-77
2023/01/23 03:05:39;;;;;;;9.95;5.18;;;;;;;7.91;53.57;100944.47;5112206;28;20059;-77
2023/01/23 03:08:32;;;;;;;7.27;4.93;;;;;;;8.04;53.75;100961.88;5112100;28;20047;-78
2023/01/23 03:11:18;;;;;;;9.10;6.90;;;;;;;8.03;53.32;100955.66;5113746;28;20043;-77
2023/01/23 03:14:02;;;;;;;10.20;7.07;;;;;;;8.02;52.73;100937.03;5104824;28;20042;-78
2023/01/23 03:16:52;;;;;;;8.45;5.75;;;;;;;8.11;53.06;100935.25;5102518;28;20043;-77
2023/01/23 03:19:37;;;;;;;8.18;5.90;;;;;;;8.14;52.46;100926.53;5097240;28;20048;-78
2023/01/23 03:22:22;;;;;;;5.70;4.78;;;;;;;8.14;52.73;100918.41;5113596;28;20066;-77
2023/01/23 03:25:07;;;;;;;7.18;4.65;;;;;;;8.21;52.77;100924.28;5111905;28;20046;-77
2023/01/23 03:27:52;;;;;;;7.30;4.15;;;;;;;8.24;52.98;100912.84;5100572;28;20046;-78
2023/01/23 03:30:37;;;;;;;5.95;4.43;;;;;;;8.17;52.93;100907.00;5113635;28;20221;-78
2023/01/23 03:33:22;;;;;;;7.00;4.72;;;;;;;8.18;52.86;100907.81;5098552;28;20050;-77
2023/01/23 03:36:11;;;;;;;9.27;4.75;;;;;;;8.20;52.41;100905.59;5100435;28;20221;-78
2023/01/23 03:42:00;;;;;;;7.88;5.22;;;;;;;8.28;52.29;100908.44;5093171;28;20399;-76
2023/01/23 03:44:48;;;;;;;10.75;5.70;;;;;;;8.39;52.55;100906.41;5087415;28;20066;-78
2023/01/23 03:47:33;;;;;;;10.77;6.00;;;;;;;8.45;50.99;100918.75;5104073;28;20063;-78
2023/01/23 03:50:18;;;;;;;7.75;4.63;;;;;;;8.59;50.65;100915.00;5097246;28;20046;-77
2023/01/23 03:53:03;;;;;;;8.85;4.40;;;;;;;8.55;50.23;100911.28;5107452;28;20121;-77
2023/01/23 03:55:48;;;;;;;7.93;5.03;;;;;;;8.33;50.52;100913.78;5104879;28;20063;-78
2023/01/23 03:58:33;;;;;;;;;;;;;;;8.64;50.71;100916.81;5099130;28;20038;-77
2023/01/23 04:01:19;;;;;;;7.32;4.78;;;;;;;8.68;49.91;100911.63;5113207;28;19912;-77
2023/01/23 04:04:04;;;;;;;6.50;3.60;;;;;;;8.68;49.07;100900.78;5113160;28;20047;-77
2023/01/23 04:06:49;;;;;;;6.82;4.60;;;;;;;8.73;48.99;100898.78;5102738;28;20047;-77
2023/01/23 04:09:34;;;;;;;7.05;4.40;;;;;;;8.61;49.54;100873.25;5095991;28;20047;-78
2023/01/23 04:12:20;;;;;;;5.55;4.20;;;;;;;8.73;50.58;100860.84;5112946;28;20054;-77
2023/01/23 04:15:07;;;;;;;5.35;4.13;;;;;;;8.58;50.44;100848.34;5112025;28;20051;-77
2023/01/23 04:17:52;;;;;;;7.03;4.50;;;;;;;8.55;50.55;100848.94;5104994;28;20054;-77
2023/01/23 04:20:37;;;;;;;7.25;4.82;;;;;;;8.46;50.19;100845.31;5112361;28;20040;-78
2023/01/23 04:23:24;;;;;;;10.18;4.18;;;;;;;8.52;50.55;100833.28;5092690;28;20051;-77
2023/01/23 04:26:10;;;;;;;6.45;3.80;;;;;;;8.43;50.07;100832.34;5092355;28;20047;-77
2023/01/23 04:28:55;;;;;;;5.75;3.65;;;;;;;8.38;49.90;100826.22;5079541;28;20522;-77
2023/01/23 04:31:40;;;;;;;5.05;3.53;;;;;;;8.41;50.15;100823.72;5111543;28;20054;-76
2023/01/23 04:34:25;;;;;;;5.82;3.42;;;;;;;8.33;49.85;100824.38;5103096;28;20046;-77
2023/01/23 04:37:12;;;;;;;6.03;3.70;;;;;;;8.38;50.17;100820.81;5112135;28;20513;-77
2023/01/23 04:39:57;;;;;;;8.30;3.25;;;;;;;8.40;49.98;100815.88;5105063;28;20047;-77
2023/01/23 04:42:42;;;;;;;4.53;2.35;;;;;;;8.41;50.53;100826.44;5098304;28;20407;-77
2023/01/23 04:45:37;;;;;;;4.88;2.95;;;;;;;8.37;50.38;100816.50;5092127;28;20045;-77
2023/01/23 04:48:42;;;;;;;6.75;3.08;;;;;;;8.35;50.32;100808.66;5094484;28;20055;-78
2023/01/23 04:51:27;;;;;;;3.55;2.55;;;;;;;8.35;50.41;100805.94;5111754;28;20050;-77
2023/01/23 04:54:12;;;;;;;4.30;2.83;;;;;;;8.39;49.66;100804.25;5107578;28;20062;-77
2023/01/23 04:56:56;;;;;;;8.30;2.90;;;;;;;8.36;49.59;100795.91;5105235;28;20046;-77
2023/01/23 04:59:41;;;;;;;4.55;2.42;;;;;;;8.34;49.82;100793.50;5111123;28;20285;-78
2023/01/23 05:02:26;;;;;;;5.53;2.75;;;;;;;8.37;49.62;100792.91;5109601;28;20055;-78
2023/01/23 05:05:11;;;;;;;5.70;2.50;;;;;;;8.31;49.23;100774.31;5106759;28;20043;-77
2023/01/23 05:07:56;;;;;;;6.65;2.35;;;;;;;8.38;49.52;100782.88;5091654;28;20076;-78
2023/01/23 05:10:41;;;;;;;3.15;2.33;;;;;;;8.36;49.72;100785.06;5104997;28;20042;-77
2023/01/23 05:13:29;;;;;;;4.78;2.72;;;;;;;8.37;49.65;100787.50;5094229;28;20050;-77
2023/01/23 05:16:14;;;;;;;2.38;1.75;;;;;;;8.28;49.81;100802.78;5105037;28;20761;-77
2023/01/23 05:19:28;;;;;;;5.13;2.63;;;;;;;8.38;54.49;100813.47;5110481;28;20125;-77
2023/01/23 05:22:13;;;;;;;3.95;2.22;;;;;;;8.50;49.37;100819.22;5100500;28;20047;-77
2023/01/23 05:24:59;;;;;;;3.53;2.42;;;;;;;8.42;51.48;100821.81;5101582;28;20051;-77
2023/01/23 05:27:47;;;;;;;2.80;2.35;;;;;;;8.36;49.84;100821.09;5103605;28;20113;-78
2023/01/23 05:30:32;;;;;;;2.92;2.28;;;;;;;8.50;48.65;100824.63;5109277;28;20050;-77
2023/01/23 05:33:39;;;;;;;3.78;2.17;;;;;;;8.56;50.45;100826.16;5090448;28;20133;-78
2023/01/23 05:36:24;;;;;;;4.03;2.65;;;;;;;8.59;51.12;100825.56;5091546;28;20054;-77
2023/01/23 05:39:09;;;;;;;2.58;1.30;;;;;;;8.62;51.91;100834.19;5111547;28;20043;-77
2023/01/23 05:41:55;;;;;;;3.10;2.30;;;;;;;8.64;52.31;100834.69;5098900;28;20125;-78
2023/01/23 05:45:04;;;;;;;2.90;1.92;;;;;;;8.57;52.86;100825.06;5104678;28;20058;-77
2023/01/23 05:47:58;;;;;;;3.15;2.03;;;;;;;8.63;53.26;100833.91;5091322;28;20051;-77
2023/01/23 05:50:43;;;;;;;5.93;2.33;;;;;;;8.70;54.05;100834.31;5091556;28;20038;-78
2023/01/23 05:53:28;;;;;;;2.85;2.53;;;;;;;8.68;53.58;100835.72;5101033;28;20071;-77
2023/01/23 05:56:14;;;;;;;6.85;2.38;;;;;;;8.76;54.20;100843.16;5105748;28;20062;-78
2023/01/23 05:59:21;;;;;;;4.40;2.72;;;;;;;8.56;55.70;100841.63;5108736;28;20053;-77
2023/01/23 06:02:20;;;;;;;4.88;3.05;;;;;;;8.63;55.78;100835.81;5107111;28;20047;-77
2023/01/23 06:05:24;;;;;;;4.65;3.15;;;;;;;8.63;56.15;100838.53;5115166;28;20058;-77
2023/01/23 06:08:20;;;;;;;3.38;2.42;;;;;;;8.43;56.98;100843.19;5100533;28;20038;-76
2023/01/23 06:11:05;;;;;;;5.78;3.63;;;;;;;8.29;57.41;100841.50;5101416;28;20054;-77
2023/01/23 06:13:50;;;;;;;3.53;2.25;;;;;;;8.32;58.46;100843.69;5114273;28;20113;-77
2023/01/23 06:16:34;;;;;;;4.05;2.55;;;;;;;8.35;58.63;100843.88;5113981;28;20410;-77
2023/01/23 06:19:20;;;;;;;4.05;2.80;;;;;;;8.34;58.07;100836.03;5095537;28;20043;-77
2023/01/23 06:22:04;;;;;;;4.53;3.20;;;;;;;8.36;58.47;100834.66;5108304;27;20415;-77
2023/01/23 06:24:56;;;;;;;4.80;3.72;;;;;;;8.34;58.51;100817.88;5103056;28;20413;-78
2023/01/23 06:27:41;;;;;;;4.50;2.60;;;;;;;8.23;58.74;100837.31;5114349;28;20046;-76
2023/01/23 06:30:27;;;;;;;5.35;3.70;;;;;;;8.20;59.98;100813.50;5099559;28;20069;-78
2023/01/23 06:33:13;;;;;;;6.07;2.72;;;;;;;8.28;58.44;100827.16;5114829;28;20051;-76
2023/01/23 06:36:01;;;;;;;10.00;5.93;;;;;;;8.36;59.16;100812.97;5101340;28;20517;-76
2023/01/23 06:38:46;;;;;;;5.43;4.18;;;;;;;8.32;59.00;100813.88;5113944;28;20407;-77
2023/01/23 06:41:32;;;;;;;6.60;3.28;;;;;;;8.44;58.60;100814.19;5098022;28;20043;-77
2023/01/23 06:44:22;;;;;;;4.60;3.25;;;;;;;8.45;59.41;100822.03;5106229;28;20054;-76
2023/01/23 06:47:07;;;;;;;4.63;3.30;;;;;;;8.59;59.15;100812.00;5114165;28;20046;-77
2023/01/23 06:49:52;;;;;;;3.30;2.47;;;;;;;8.62;59.19;100820.66;5114266;28;20051;-76
2023/01/23 06:52:37;;;;;;;6.55;2.78;;;;;;;8.45;59.61;100827.44;5111352;28;20117;-77
2023/01/23 06:55:22;;;;;;;11.13;2.05;;;;;;;8.52;59.41;100827.06;5098195;28;20421;-76
2023/01/23 06:58:07;;;;;;;5.05;2.92;;;;;;;8.45;60.54;100822.03;5110154;28;20038;-76
2023/01/23 07:00:52;;;;;;;4.38;2.95;;;;;;;8.38;60.77;100820.81;5104299;28;20066;-76
2023/01/23 07:03:56;;;;;;;8.55;4.20;;;;;;;8.51;59.13;100826.25;5112731;28;20045;-76
2023/01/23 07:06:41;;;;;;;4.65;3.10;;;;;;;8.37;59.07;100813.78;5109281;28;20046;-76
2023/01/23 07:09:27;;;;;;;5.85;3.45;;;;;;;8.36;60.07;100807.56;5113123;28;20051;-76
2023/01/23 07:12:22;;;;;;;12.50;3.50;;;;;;;8.34;61.61;100806.22;5093312;28;20047;-76
2023/01/23 07:15:08;;;;;;;5.97;2.95;;;;;;;8.30;61.17;100814.16;5108876;28;20043;-74
2023/01/23 07:17:57;;;;;;;7.50;3.92;;;;;;;8.33;61.48;100805.44;5105281;28;20042;-74
2023/01/23 07:20:45;;;;;;;5.63;3.92;;;;;;;8.34;61.53;100792.69;5107297;28;20046;-74
2023/01/23 07:23:30;;;;;;;4.95;3.80;;;;;;;8.19;62.10;100791.03;5097488;28;20046;-75
2023/01/23 07:26:15;;;;;;;5.03;3.33;;;;;;;8.35;62.46;100794.31;5110266;28;20046;-75
2023/01/23 07:29:00;;;;;;;6.70;2.97;;;;;;;8.23;61.28;100791.25;5095584;28;20117;-74
2023/01/23 07:31:44;;;;;;;6.60;3.80;;;;;;;8.24;60.99;100782.81;5106372;28;20047;-74
2023/01/23 07:34:29;;;;;;;6.38;4.22;;;;;;;8.29;62.62;100788.13;5113484;28;20054;-75
2023/01/23 07:37:13;;;;;;;5.65;3.70;;;;;;;8.39;61.30;100790.69;5113751;28;20046;-75
2023/01/23 07:39:58;;;;;;;8.38;5.20;;;;;;;8.43;61.25;100796.34;5111908;28;20667;-74
2023/01/23 07:42:42;;;;;;;8.48;4.53;;;;;;;8.39;61.40;100787.97;5107613;28;20046;-74
2023/01/23 07:45:27;;;;;;;6.63;3.65;;;;;;;8.31;61.24;100790.59;5113380;28;20046;-74
2023/01/23 07:48:11;;;;;;;16.13;9.82;;;;;;;8.40;62.03;100799.63;5113707;28;20050;-74
2023/01/23 07:51:00;;;;;;;7.65;4.72;;;;;;;8.27;61.32;100793.06;5090734;28;20047;-75
2023/01/23 07:53:45;;;;;;;5.70;4.38;;;;;;;8.39;61.90;100798.81;5101711;28;20043;-75
2023/01/23 07:56:31;;;;;;;8.20;5.90;;;;;;;8.36;60.82;100802.13;5107432;28;20054;-75
2023/01/23 07:59:16;;;;;;;12.70;5.95;;;;;;;8.26;60.73;100798.78;5112569;28;20109;-75
2023/01/23 08:02:00;;;;;;;13.88;7.28;;;;;;;8.38;61.24;100799.13;5096701;28;20062;-74
2023/01/23 08:04:47;;;;;;;18.77;9.23;;;;;;;8.35;61.06;100805.94;5091512;28;20044;-74
2023/01/23 08:07:31;;;;;;;14.20;8.97;;;;;;;8.25;61.51;100813.41;5105280;28;20047;-75
2023/01/23 08:10:17;;;;;;;11.85;7.38;;;;;;;8.33;61.07;100801.94;5112334;28;20686;-75
2023/01/23 08:13:01;;;;;;;9.00;5.65;;;;;;;8.38;60.95;100804.56;5112987;28;20066;-75
2023/01/23 08:15:46;;;;;;;14.07;7.93;;;;;;;8.43;62.66;100818.78;5112735;28;20109;-74
2023/01/23 08:18:30;;;;;;;9.50;5.68;;;;;;;8.59;61.36;100814.72;5112612;28;20046;-75
2023/01/23 08:21:15;;;;;;;8.02;4.22;;;;;;;8.64;61.54;100813.00;5112702;28;20054;-75
2023/01/23 08:24:01;;;;;;;3.85;3.15;;;;;;;8.56;62.89;100820.75;5112817;28;20521;-76
2023/01/23 08:26:46;;;;;;;10.05;4.40;;;;;;;8.40;63.08;100824.81;5107458;28;20050;-76
2023/01/23 08:29:31;;;;;;;7.13;4.03;;;;;;;8.33;63.05;100835.22;5111941;28;20536;-76
2023/01/23 08:32:16;;;;;;;6.22;3.40;;;;;;;8.31;63.20;100842.06;5099168;28;20156;-75
2023/01/23 08:35:01;;;;;;;8.10;4.13;;;;;;;8.48;62.44;100855.88;5112310;28;20047;-75
2023/01/23 08:37:45;;;;;;;6.55;4.40;;;;;;;8.42;63.38;100847.03;5096405;28;20042;-75
2023/01/23 08:40:31;;;;;;;8.15;4.72;;;;;;;8.40;62.85;100854.63;5111720;28;20066;-75
2023/01/23 08:43:16;;;;;;;7.32;4.20;;;;;;;8.52;62.50;100846.84;5108061;28;20039;-75
2023/01/23 08:46:01;;;;;;;9.38;4.60;;;;;;;8.54;63.21;100855.47;5106180;28;20410;-75
2023/01/23 08:48:46;;;;;;;5.10;3.67;;;;;;;8.55;63.41;100865.19;5107813;28;20038;-75
2023/01/23 08:51:30;;;;;;;6.60;4.75;;;;;;;8.57;62.67;100868.44;5094547;28;20054;-75
2023/01/23 08:54:15;;;;;;;8.05;4.35;;;;;;;8.49;63.09;100868.28;5112832;28;20044;-75
2023/01/23 08:57:00;;;;;;;7.70;4.57;;;;;;;8.51;63.27;100875.03;5109037;28;20599;-75
2023/01/23 08:59:45;;;;;;;5.53;3.55;;;;;;;8.44;64.44;100880.03;5103195;28;20043;-76
2023/01/23 09:02:30;;;;;;;9.82;4.03;;;;;;;8.37;64.74;100882.31;5110927;28;20408;-75
2023/01/23 09:05:14;;;;;;;9.32;5.32;;;;;;;8.27;64.56;100882.47;5110547;28;20043;-75
2023/01/23 09:07:59;;;;;;;8.68;4.00;;;;;;;8.24;64.83;100888.44;5105556;28;20054;-75
2023/01/23 09:10:44;;;;;;;19.08;4.70;;;;;;;8.28;65.12;100894.09;5095081;28;20109;-75
2023/01/23 09:13:29;;;;;;;7.22;4.10;;;;;;;8.31;64.79;100890.81;5105354;28;20059;-75
2023/01/23 09:16:14;;;;;;;10.07;4.75;;;;;;;8.23;65.15;100894.19;5111865;28;20042;-76
2023/01/23 09:18:59;;;;;;;13.00;5.72;;;;;;;8.19;65.15;100896.66;5099810;28;20125;-75
2023/01/23 09:21:43;;;;;;;6.68;5.10;;;;;;;8.25;65.17;100909.03;5103819;28;20414;-74
2023/01/23 09:24:27;;;;;;;7.68;5.93;;;;;;;8.10;65.96;100904.66;5116124;28;20062;-75
2023/01/23 09:27:13;;;;;;;10.80;5.47;;;;;;;8.10;66.47;100907.38;5116006;28;20054;-75
2023/01/23 09:29:58;;;;;;;9.45;6.18;;;;;;;8.03;67.30;100903.41;5116113;28;20411;-75
2023/01/23 09:32:42;;;;;;;11.07;6.63;;;;;;;7.75;68.08;100910.56;5115746;28;20043;-80
2023/01/23 09:35:26;;;;;;;12.07;5.20;;;;;;;6.99;72.01;100913.38;5112953;28;20055;-77
2023/01/23 09:38:11;;;;;;;16.15;7.15;;;;;;;6.59;74.05;100899.19;5115023;28;20043;-77
2023/01/23 09:40:57;;;;;;;12.07;5.50;;;;;;;6.88;73.75;100907.28;5109358;28;20051;-80
2023/01/23 09:43:42;;;;;;;22.63;8.63;;;;;;;6.98;71.28;100912.56;5100531;28;20046;-77
2023/01/23 09:46:43;;;;;;;11.52;4.13;;;;;;;6.94;71.45;100908.03;5115663;28;20402;-76
2023/01/23 09:49:43;;;;;;;12.05;6.35;;;;;;;7.08;71.93;100912.47;5115361;28;20046;-76
2023/01/23 09:52:32;;;;;;;14.05;6.40;;;;;;;7.16;71.89;100914.53;5106092;28;20051;-76
2023/01/23 09:55:21;;;;;;;9.77;6.40;;;;;;;6.94;73.45;100906.13;5098868;28;20039;-76
2023/01/23 09:58:15;;;;;;;9.85;5.47;;;;;;;6.91;74.08;100916.72;5110328;28;20046;-75
2023/01/23 10:01:00;;;;;;;11.95;5.53;;;;;;;7.38;72.68;100914.03;5094768;28;20047;-75
2023/01/23 10:03:45;;;;;;;6.78;4.25;;;;;;;8.25;70.32;100919.88;5095205;28;20051;-75
2023/01/23 10:06:38;;;;;;;8.30;4.90;;;;;;;8.26;70.18;100917.97;5090899;28;20525;-76
2023/01/23 10:09:48;;;;;;;10.32;5.30;;;;;;;8.31;68.90;100918.72;5109604;28;20067;-77
2023/01/23 10:12:36;;;;;;;15.13;5.38;;;;;;;8.09;70.40;100921.19;5093187;28;20067;-77
2023/01/23 10:15:38;;;;;;;13.85;5.00;;;;;;;8.18;70.01;100924.84;5111830;28;20450;-77
2023/01/23 10:18:53;;;;;;;6.65;4.22;;;;;;;8.10;70.10;100918.19;5114716;28;20052;-76
2023/01/23 10:22:02;;;;;;;6.63;3.88;;;;;;;8.06;71.79;100921.78;5114567;28;20406;-77
2023/01/23 10:24:56;;;;;;;7.28;3.47;;;;;;;8.01;71.29;100922.66;5114905;28;20042;-77
2023/01/23 10:27:49;;;;;;;7.47;4.25;;;;;;;8.03;71.45;100917.75;5099434;28;20057;-77
2023/01/23 10:30:37;;;;;;;13.20;5.15;;;;;;;7.92;71.39;100921.72;5098944;28;20422;-76
2023/01/23 10:33:35;;;;;;;5.72;4.25;;;;;;;7.85;72.61;100921.25;5113822;28;20047;-76
2023/01/23 10:36:26;;;;;;;13.05;7.40;;;;;;;7.80;72.52;100923.22;5089377;28;20043;-76
2023/01/23 10:39:24;;;;;;;10.80;6.28;;;;;;;7.65;73.15;100916.94;5095814;28;20533;-76
2023/01/23 10:42:14;;;;;;;11.65;5.65;;;;;;;7.69;73.78;100917.97;5088149;28;20042;-76
2023/01/23 10:45:04;;;;;;;7.25;4.68;;;;;;;7.67;73.40;100924.75;5108405;28;20051;-76
2023/01/23 10:47:58;;;;;;;12.32;4.70;;;;;;;7.70;73.55;100911.44;5108044;28;20411;-76
2023/01/23 10:50:53;;;;;;;7.55;3.53;;;;;;;7.76;73.97;100905.97;5105842;28;20047;-76
2023/01/23 10:54:01;;;;;;;5.35;2.92;;;;;;;7.60;74.48;100902.66;5113814;28;20042;-76
2023/01/23 10:56:57;;;;;;;7.28;3.42;;;;;;;7.87;72.96;100897.44;5107681;28;20050;-76
2023/01/23 11:00:01;;;;;;;10.05;5.72;;;;;;;7.88;73.16;100893.59;5106150;28;20034;-76
2023/01/23 11:02:56;;;;;;;11.52;5.30;;;;;;;7.94;72.50;100897.84;5102235;28;20043;-76
2023/01/23 11:05:57;;;;;;;8.60;4.90;;;;;;;7.92;72.44;100904.66;5107558;28;20536;-76
2023/01/23 11:09:04;;;;;;;7.63;3.03;;;;;;;7.92;72.96;100902.78;5113700;28;20412;-76
2023/01/23 11:12:15;;;;;;;11.55;3.60;;;;;;;7.80;72.79;100896.16;5118303;28;20070;-76
2023/01/23 11:15:39;;;;;;;11.82;3.95;;;;;;;7.81;72.77;100895.88;5111984;28;20047;-76
2023/01/23 11:18:41;;;;;;;8.07;5.07;;;;;;;8.02;71.96;100897.22;5107513;28;20067;-76
2023/01/23 11:21:36;;;;;;;4.32;2.53;;;;;;;7.84;72.47;100886.34;5112290;28;20054;-76
2023/01/23 11:24:35;;;;;;;7.95;3.15;;;;;;;7.95;72.46;100887.81;5118111;28;20719;-76
2023/01/23 11:27:30;;;;;;;7.57;4.30;;;;;;;7.97;71.85;100902.69;5110020;28;20051;-76
2023/01/23 11:30:30;;;;;;;6.07;3.47;;;;;;;8.00;72.86;100893.16;5116885;28;20043;-76
2023/01/23 11:33:51;;;;;;;8.38;4.45;;;;;;;8.20;72.24;100886.63;5112065;28;20525;-76
2023/01/23 11:37:01;;;;;;;5.82;2.83;;;;;;;8.30;71.61;100876.47;5118485;28;20509;-76
2023/01/23 11:40:03;;;;;;;7.70;3.35;;;;;;;7.89;73.57;100868.13;5111504;28;20394;-76
2023/01/23 11:42:57;;;;;;;5.57;3.10;;;;;;;8.04;74.30;100850.84;5104573;28;20043;-76
2023/01/23 11:46:09;;;;;;;4.57;2.55;;;;;;;8.48;73.98;100831.47;5110161;28;20058;-76
2023/01/23 11:49:26;;;;;;;6.57;3.50;;;;;;;8.31;73.12;100829.31;5118672;28;20050;-77
2023/01/23 11:52:32;;;;;;;7.35;2.95;;;;;;;8.43;72.53;100845.88;5110040;28;20066;-76
2023/01/23 11:55:57;;;;;;;5.32;3.13;;;;;;;8.35;71.36;100862.03;5118613;28;20042;-76
2023/01/23 11:58:58;;;;;;;3.83;2.22;;;;;;;8.44;71.24;100892.75;5113110;28;20059;-76
2023/01/23 12:02:06;;;;;;;2.35;1.85;;;;;;;8.73;69.70;100887.13;5114090;28;20039;-75
2023/01/23 12:05:17;;;;;;;3.17;1.77;;;;;;;8.54;70.77;100889.88;5107357;28;20046;-76
2023/01/23 12:08:38;;;;;;;3.53;2.13;;;;;;;8.57;70.83;100890.13;5109235;28;20035;-75
2023/01/23 12:11:38;;;;;;;3.13;2.17;;;;;;;8.77;69.16;100872.69;5111290;28;20071;-75
2023/01/23 12:14:43;;;;;;;4.63;2.72;;;;;;;8.77;69.47;100882.72;5113815;28;20046;-76
2023/01/23 12:17:51;;;;;;;3.05;2.53;;;;;;;8.84;68.94;100888.53;5107550;28;20066;-76
2023/01/23 12:21:06;;;;;;;4.90;2.08;;;;;;;8.88;69.27;100886.88;5111283;28;20038;-75
2023/01/23 12:24:33;;;;;;;5.38;2.55;;;;;;;8.86;68.88;100879.00;5108211;28;20038;-76
2023/01/23 12:27:42;;;;;;;2.45;1.27;;;;;;;9.05;67.94;100886.25;5095154;28;20526;-76
2023/01/23 12:30:49;;;;;;;1.85;1.38;;;;;;;9.01;67.89;100873.31;5097547;28;20047;-75
2023/01/23 12:33:55;;;;;;;1.25;0.70;;;;;;;9.18;66.28;100871.91;5104772;28;20545;-76
2023/01/23 12:36:51;;;;;;;0.30;0.30;;;;;;;9.21;65.48;100872.09;5109509;28;20050;-76
2023/01/23 12:40:18;;;;;;;0.88;0.63;;;;;;;9.17;65.51;100884.66;5113831;28;20062;-75
2023/01/23 12:43:27;;;;;;;0.75;0.35;;;;;;;9.14;65.34;100860.88;5110241;27;20502;-76
2023/01/23 12:46:45;;;;;;;0.32;0.32;;;;;;;9.34;64.89;100852.31;5114683;28;20046;-75
2023/01/23 12:49:55;;;;;;;0.22;0.22;;;;;;;9.50;64.11;100854.69;5074190;28;20054;-76
2023/01/23 12:52:52;;;;;;;1.98;0.45;;;;;;;9.63;63.70;100845.72;5114574;28;20521;-75
2023/01/23 12:55:54;;;;;;;0.60;0.40;;;;;;;9.84;62.60;100853.09;5115545;28;20398;-76
2023/01/23 12:58:57;;;;;;;1.55;0.40;;;;;;;9.98;61.15;100852.25;5112367;28;20066;-75
2023/01/23 13:01:59;;;;;;;0.63;0.43;;;;;;;10.00;61.39;100850.84;5110885;28;20078;-75
2023/01/23 13:05:10;;;;;;;1.23;0.40;;;;;;;10.06;61.09;100865.88;5109889;28;20043;-77
2023/01/23 13:08:12;;;;;;;3.40;0.50;;;;;;;10.11;61.03;100871.19;5116573;27;20600;-76
2023/01/23 13:11:44;;;;;;;0.20;0.20;;;;;;;10.15;60.94;100872.22;5116233;27;20514;-76
2023/01/23 13:14:41;;;;;;;1.60;0.50;;;;;;;10.16;60.23;100871.09;5114300;28;20046;-76
2023/01/23 13:17:44;;;;;;;1.75;0.60;;;;;;;10.31;59.58;100867.22;5107708;27;20054;-77
2023/01/23 13:25:08;;;;;;;0.40;0.30;;;;;;;10.56;57.42;100857.63;5113875;27;20042;-76
2023/01/23 13:27:54;;;;;;;3.35;0.52;;;;;;;10.70;57.80;100874.66;5109469;28;20054;-76
2023/01/23 13:31:02;;;;;;;1.90;0.68;;;;;;;10.93;57.63;100862.59;5111159;28;20039;-76
2023/01/23 13:33:56;;;;;;;1.00;0.73;;;;;;;11.05;57.54;100854.66;5106801;28;20663;-76